Bowerman Airport Hoquiam US
ICAO: KHQM
IATA: HQM
Category: Medium
Scheduled Services: No

Elevation: 18 ft
TransAlt. 18000 ft.

Airport Communications:
ASOS:135.775
SEATTLE CNTR:128.3
SEATTLE RDO:122.2
CTAF/UNICOM:122.7

KHQM Zoom In..

Runways:

(A) RW 06 length 5000 ft width 150 ft
---- / hdg 60

(B) RW 24 length 5000 ft width 150 ft
ILS 108.70 / hdg 240

Location; KHQM
Day. 20 / Time. 09.53 Zulu
* Altimeter: 30.27
* Temperature: 07° c. 44.6°f.
* Wind from: 000° Speed 00 kn.
Dewpoint: 05° c.
Visibility: 10 Statute Miles.
Clouds: Clear (automated report).

KHQM 200953Z AUTO 00000KT 10SM CLR 07/05 A3027 RMK AO2 SLP255 T00670050


Wind - Calm.

  YouTube Music Video
 
jpsmedia.com for Web Design  worldairports.se 2018   terms of use